Denver, CO (80236)

8:47 PM MDT on July 26, 2016 (GMT -0600)
Loretto Heights | | Change Station

Elev 5476 ft 39.66 °N, 105.03 °W | Updated 12 seconds ago

Mostly Cloudy
Mostly Cloudy
78.3 °F
Feels Like 78 °F
N
0.0
Wind Variable Wind from WNW
Gusts 3.0 mph

Today
High -- | Low -- °F
--% Chance of Precip.
Yesterday
High -- | Low -- °F
Precip. -- in
Pressure 29.94 in
Visibility 10.0 miles
Clouds Few 12000 ft
Scattered Clouds 15000 ft
Mostly Cloudy 20000 ft
Heat Index 78 °F
Dew Point 43 °F
Humidity 29%
Rainfall 0.00 in
Snow Depth Not available.
5:54 AM 8:18 PM
Waning Gibbous, 48% visible
METAR KAPA 270153Z 31004KT 10SM FEW120 SCT150 BKN200 27/03 A3019 RMK AO2 SLP136 T02720028
Pressure 29.94 in
Visibility 10.0 miles
Clouds Few 12000 ft
Scattered Clouds 15000 ft
Mostly Cloudy 20000 ft
Heat Index 78 °F
Dew Point 43 °F
Humidity 29%
Rainfall 0.00 in
Snow Depth Not available.
5:54 AM 8:18 PM
Waning Gibbous, 48% visible
METAR KAPA 270153Z 31004KT 10SM FEW120 SCT150 BKN200 27/03 A3019 RMK AO2 SLP136 T02720028

10-Day Weather Forecast

Almanac

Astronomy

Jul. 26, 2016 Rise Set
Actual Time
Civil Twilight
Nautical Twilight
Astronomical Twilight
Moon
Length of Visible Light
Length of Day
Tomorrow will be .
, % of the Moon is Illuminated

Today's Extremes

State Highs State Lows

Community

WunderPhotos

Upload Photos

1,927,784 photos uploaded!

WunderBlog® & News

Nearby

Air Quality

  Air Quality AQ Index Pollutant
Not available.

Snow Depth

Station Depth Elevation

Earthquake Activity

City Distance Mag. Time & Date
Minimum magnitude displayed is 2.5.

Coastal Water Temperatures

Place Temperature

Stations

Nearby Weather Stations

Station Location Temp. Windchill Dew Point Humidity Wind Precip. Elev Updated Type
                   

Watches & Warnings

There are currently no watches in effect.